Pebble Beach, California
Current Conditions -  °F | °C
As of 3:54 AM on Monday 22 Dec 2014 (Local Time) from KMRY Reporting Station
Moderate Fog Moderate Fog  
Wind Chill: 56°   Ceiling: 300
Heat Index: 56°   Visibility: 0.5mi
Dew Point: 55°   Wind: 0mph
Humidity: 97%   Direction: NA
Pressure: 30.26"   Gusts: NA
Location:  36.57°N, 121.95°W
Report Text: KMRY 221154Z AUTO 00000KT 1/2SM FG VV003 13/13 A3026 RMK AO2 SLP257 T01330128 10156 20133 58003
Loading
Personal Weather Stations






























Interactive Weather Map New forecast layout! Learn more

10-Day Weather Forecast

Advertisements
Track Severe Weather on mobile